sensor_id;sensor_type;location;lat;lon;timestamp;temperature;humidity
52016;DHT22;38032;53.326;6.472;2023-03-01T00:03:21;3.00;99.90
52016;DHT22;38032;53.326;6.472;2023-03-01T00:10:39;2.60;99.90
52016;DHT22;38032;53.326;6.472;2023-03-01T00:13:05;2.80;99.90
52016;DHT22;38032;53.326;6.472;2023-03-01T00:15:32;2.40;99.90
52016;DHT22;38032;53.326;6.472;2023-03-01T00:17:57;2.70;99.90
52016;DHT22;38032;53.326;6.472;2023-03-01T00:20:23;2.20;99.90
52016;DHT22;38032;53.326;6.472;2023-03-01T00:22:49;2.20;99.90
52016;DHT22;38032;53.326;6.472;2023-03-01T00:25:15;2.10;99.90
52016;DHT22;38032;53.326;6.472;2023-03-01T00:30:08;1.90;99.90
52016;DHT22;38032;53.326;6.472;2023-03-01T00:32:34;1.30;99.90
52016;DHT22;38032;53.326;6.472;2023-03-01T00:34:59;1.80;99.90
52016;DHT22;38032;53.326;6.472;2023-03-01T00:39:51;2.00;99.90
52016;DHT22;38032;53.326;6.472;2023-03-01T00:42:17;1.70;99.90
52016;DHT22;38032;53.326;6.472;2023-03-01T00:47:09;1.50;99.90
52016;DHT22;38032;53.326;6.472;2023-03-01T00:49:35;2.70;99.90
52016;DHT22;38032;53.326;6.472;2023-03-01T00:54:27;1.60;99.90
52016;DHT22;38032;53.326;6.472;2023-03-01T00:56:53;1.40;99.90
52016;DHT22;38032;53.326;6.472;2023-03-01T00:59:19;1.90;99.90
52016;DHT22;38032;53.326;6.472;2023-03-01T01:01:45;0.60;99.90
52016;DHT22;38032;53.326;6.472;2023-03-01T01:04:12;1.50;99.90
52016;DHT22;38032;53.326;6.472;2023-03-01T01:06:41;1.40;99.90
52016;DHT22;38032;53.326;6.472;2023-03-01T01:11:35;1.20;99.90
52016;DHT22;38032;53.326;6.472;2023-03-01T01:18:55;1.30;99.90
52016;DHT22;38032;53.326;6.472;2023-03-01T01:21:23;1.10;99.90
52016;DHT22;38032;53.326;6.472;2023-03-01T01:23:50;2.10;99.90
52016;DHT22;38032;53.326;6.472;2023-03-01T01:26:22;0.90;99.90
52016;DHT22;38032;53.326;6.472;2023-03-01T01:28:48;1.60;99.90
52016;DHT22;38032;53.326;6.472;2023-03-01T01:31:15;1.10;99.90
52016;DHT22;38032;53.326;6.472;2023-03-01T01:33:41;1.10;99.90
52016;DHT22;38032;53.326;6.472;2023-03-01T01:36:08;2.30;99.90
52016;DHT22;38032;53.326;6.472;2023-03-01T01:38:35;1.10;99.90
52016;DHT22;38032;53.326;6.472;2023-03-01T01:43:33;1.10;99.90
52016;DHT22;38032;53.326;6.472;2023-03-01T01:46:04;0.40;99.90
52016;DHT22;38032;53.326;6.472;2023-03-01T01:48:39;1.00;99.90
52016;DHT22;38032;53.326;6.472;2023-03-01T01:51:11;1.20;99.90
52016;DHT22;38032;53.326;6.472;2023-03-01T01:53:38;1.30;99.90
52016;DHT22;38032;53.326;6.472;2023-03-01T01:56:07;0.60;99.90
52016;DHT22;38032;53.326;6.472;2023-03-01T01:58:34;1.20;99.90
52016;DHT22;38032;53.326;6.472;2023-03-01T02:01:00;1.40;99.90
52016;DHT22;38032;53.326;6.472;2023-03-01T02:03:29;1.10;99.90
52016;DHT22;38032;53.326;6.472;2023-03-01T02:06:04;1.10;99.90
52016;DHT22;38032;53.326;6.472;2023-03-01T02:08:35;1.00;99.90
52016;DHT22;38032;53.326;6.472;2023-03-01T02:11:02;1.00;99.90
52016;DHT22;38032;53.326;6.472;2023-03-01T02:13:31;1.00;99.90
52016;DHT22;38032;53.326;6.472;2023-03-01T02:15:58;1.00;99.90
52016;DHT22;38032;53.326;6.472;2023-03-01T02:18:24;1.00;99.90
52016;DHT22;38032;53.326;6.472;2023-03-01T02:21:05;1.90;99.90
52016;DHT22;38032;53.326;6.472;2023-03-01T02:23:33;1.00;99.90
52016;DHT22;38032;53.326;6.472;2023-03-01T02:28:40;2.20;99.90
52016;DHT22;38032;53.326;6.472;2023-03-01T02:31:09;1.10;99.90
52016;DHT22;38032;53.326;6.472;2023-03-01T02:33:56;1.90;99.90
52016;DHT22;38032;53.326;6.472;2023-03-01T02:36:25;0.90;99.90
52016;DHT22;38032;53.326;6.472;2023-03-01T02:38:56;1.10;99.90
52016;DHT22;38032;53.326;6.472;2023-03-01T02:41:23;0.60;99.90
52016;DHT22;38032;53.326;6.472;2023-03-01T02:43:50;1.00;99.90
52016;DHT22;38032;53.326;6.472;2023-03-01T02:46:20;1.00;99.90
52016;DHT22;38032;53.326;6.472;2023-03-01T02:48:49;0.90;99.90
52016;DHT22;38032;53.326;6.472;2023-03-01T02:54:06;0.80;99.90
52016;DHT22;38032;53.326;6.472;2023-03-01T02:56:33;0.80;99.90
52016;DHT22;38032;53.326;6.472;2023-03-01T02:59:00;0.70;99.90
52016;DHT22;38032;53.326;6.472;2023-03-01T03:01:27;0.70;99.90
52016;DHT22;38032;53.326;6.472;2023-03-01T03:04:04;0.60;99.90
52016;DHT22;38032;53.326;6.472;2023-03-01T03:06:30;0.50;99.90
52016;DHT22;38032;53.326;6.472;2023-03-01T03:08:56;0.40;99.90
52016;DHT22;38032;53.326;6.472;2023-03-01T03:11:22;0.40;99.90
52016;DHT22;38032;53.326;6.472;2023-03-01T03:13:48;0.40;99.90
52016;DHT22;38032;53.326;6.472;2023-03-01T03:16:15;0.40;99.90
52016;DHT22;38032;53.326;6.472;2023-03-01T03:18:41;0.40;99.90
52016;DHT22;38032;53.326;6.472;2023-03-01T03:21:08;0.30;99.90
52016;DHT22;38032;53.326;6.472;2023-03-01T03:23:36;0.30;99.90
52016;DHT22;38032;53.326;6.472;2023-03-01T03:26:03;0.30;99.90
52016;DHT22;38032;53.326;6.472;2023-03-01T03:28:36;0.40;99.90
52016;DHT22;38032;53.326;6.472;2023-03-01T03:31:06;0.40;99.90
52016;DHT22;38032;53.326;6.472;2023-03-01T03:33:32;0.40;99.90
52016;DHT22;38032;53.326;6.472;2023-03-01T03:35:58;0.50;99.90
52016;DHT22;38032;53.326;6.472;2023-03-01T03:38:24;0.50;99.90
52016;DHT22;38032;53.326;6.472;2023-03-01T03:41:00;0.50;99.90
52016;DHT22;38032;53.326;6.472;2023-03-01T03:43:28;0.50;99.90
52016;DHT22;38032;53.326;6.472;2023-03-01T03:45:55;0.50;99.90
52016;DHT22;38032;53.326;6.472;2023-03-01T03:48:23;0.50;99.90
52016;DHT22;38032;53.326;6.472;2023-03-01T03:50:51;0.50;99.90
52016;DHT22;38032;53.326;6.472;2023-03-01T03:53:18;0.50;99.90
52016;DHT22;38032;53.326;6.472;2023-03-01T03:55:44;0.40;99.90
52016;DHT22;38032;53.326;6.472;2023-03-01T03:58:11;0.40;99.90
52016;DHT22;38032;53.326;6.472;2023-03-01T04:00:39;0.40;99.90
52016;DHT22;38032;53.326;6.472;2023-03-01T04:03:06;0.30;99.90
52016;DHT22;38032;53.326;6.472;2023-03-01T04:05:32;0.30;99.90
52016;DHT22;38032;53.326;6.472;2023-03-01T04:07:58;0.30;99.90
52016;DHT22;38032;53.326;6.472;2023-03-01T04:10:35;0.20;99.90
52016;DHT22;38032;53.326;6.472;2023-03-01T04:13:04;0.20;99.90
52016;DHT22;38032;53.326;6.472;2023-03-01T04:15:30;0.20;99.90
52016;DHT22;38032;53.326;6.472;2023-03-01T04:17:58;0.20;99.90
52016;DHT22;38032;53.326;6.472;2023-03-01T04:20:28;0.20;99.90
52016;DHT22;38032;53.326;6.472;2023-03-01T04:23:00;0.10;99.90
52016;DHT22;38032;53.326;6.472;2023-03-01T04:25:38;0.10;99.90
52016;DHT22;38032;53.326;6.472;2023-03-01T04:28:05;0.00;99.90
52016;DHT22;38032;53.326;6.472;2023-03-01T04:30:30;0.00;99.90
52016;DHT22;38032;53.326;6.472;2023-03-01T04:33:04;-0.10;99.90
52016;DHT22;38032;53.326;6.472;2023-03-01T04:35:31;-0.10;99.90
52016;DHT22;38032;53.326;6.472;2023-03-01T04:37:57;-0.20;99.90
52016;DHT22;38032;53.326;6.472;2023-03-01T04:40:23;-0.20;99.90
52016;DHT22;38032;53.326;6.472;2023-03-01T04:42:49;-0.30;99.90
52016;DHT22;38032;53.326;6.472;2023-03-01T04:45:15;-0.30;99.90
52016;DHT22;38032;53.326;6.472;2023-03-01T04:47:42;-0.30;99.90
52016;DHT22;38032;53.326;6.472;2023-03-01T04:50:11;-0.40;99.90
52016;DHT22;38032;53.326;6.472;2023-03-01T04:52:38;-0.40;99.90
52016;DHT22;38032;53.326;6.472;2023-03-01T04:55:04;-0.40;99.90
52016;DHT22;38032;53.326;6.472;2023-03-01T04:57:30;-0.40;99.90
52016;DHT22;38032;53.326;6.472;2023-03-01T04:59:56;-0.40;99.90
52016;DHT22;38032;53.326;6.472;2023-03-01T05:02:22;-0.50;99.90
52016;DHT22;38032;53.326;6.472;2023-03-01T05:04:49;-0.50;99.90
52016;DHT22;38032;53.326;6.472;2023-03-01T05:07:15;-0.50;99.90
52016;DHT22;38032;53.326;6.472;2023-03-01T05:09:46;-0.50;99.90
52016;DHT22;38032;53.326;6.472;2023-03-01T05:12:12;-0.60;99.90
52016;DHT22;38032;53.326;6.472;2023-03-01T05:14:39;-0.60;99.90
52016;DHT22;38032;53.326;6.472;2023-03-01T05:17:05;-0.60;99.90
52016;DHT22;38032;53.326;6.472;2023-03-01T05:19:31;-0.60;99.90
52016;DHT22;38032;53.326;6.472;2023-03-01T05:21:58;-0.60;99.90
52016;DHT22;38032;53.326;6.472;2023-03-01T05:24:32;-0.70;99.90
52016;DHT22;38032;53.326;6.472;2023-03-01T05:26:58;-0.70;99.90
52016;DHT22;38032;53.326;6.472;2023-03-01T05:29:25;-0.80;99.90
52016;DHT22;38032;53.326;6.472;2023-03-01T05:31:54;-0.90;99.90
52016;DHT22;38032;53.326;6.472;2023-03-01T05:34:26;-0.90;99.90
52016;DHT22;38032;53.326;6.472;2023-03-01T05:36:52;-0.90;99.90
52016;DHT22;38032;53.326;6.472;2023-03-01T05:39:24;-0.90;99.90
52016;DHT22;38032;53.326;6.472;2023-03-01T05:41:55;-0.90;99.90
52016;DHT22;38032;53.326;6.472;2023-03-01T05:44:21;-0.90;99.90
52016;DHT22;38032;53.326;6.472;2023-03-01T05:46:47;-0.90;99.90
52016;DHT22;38032;53.326;6.472;2023-03-01T05:49:14;-0.80;99.90
52016;DHT22;38032;53.326;6.472;2023-03-01T05:51:40;-0.70;99.90
52016;DHT22;38032;53.326;6.472;2023-03-01T05:54:07;-0.80;99.90
52016;DHT22;38032;53.326;6.472;2023-03-01T05:56:34;-0.80;99.90
52016;DHT22;38032;53.326;6.472;2023-03-01T05:59:00;-0.80;99.90
52016;DHT22;38032;53.326;6.472;2023-03-01T06:01:26;-0.80;99.90
52016;DHT22;38032;53.326;6.472;2023-03-01T06:03:52;-0.90;99.90
52016;DHT22;38032;53.326;6.472;2023-03-01T06:06:18;-0.90;99.90
52016;DHT22;38032;53.326;6.472;2023-03-01T06:08:44;-0.90;99.90
52016;DHT22;38032;53.326;6.472;2023-03-01T06:11:10;-0.90;99.90
52016;DHT22;38032;53.326;6.472;2023-03-01T06:13:36;-0.90;99.90
52016;DHT22;38032;53.326;6.472;2023-03-01T06:16:05;-0.90;99.90
52016;DHT22;38032;53.326;6.472;2023-03-01T06:18:31;-0.90;99.90
52016;DHT22;38032;53.326;6.472;2023-03-01T06:20:57;-0.80;99.90
52016;DHT22;38032;53.326;6.472;2023-03-01T06:23:23;-0.90;99.90
52016;DHT22;38032;53.326;6.472;2023-03-01T06:25:51;-0.90;99.90
52016;DHT22;38032;53.326;6.472;2023-03-01T06:28:17;-0.90;99.90
52016;DHT22;38032;53.326;6.472;2023-03-01T06:30:43;-0.90;99.90
52016;DHT22;38032;53.326;6.472;2023-03-01T06:33:09;-0.90;99.90
52016;DHT22;38032;53.326;6.472;2023-03-01T06:35:35;-0.90;99.90
52016;DHT22;38032;53.326;6.472;2023-03-01T06:38:03;-0.90;99.90
52016;DHT22;38032;53.326;6.472;2023-03-01T06:40:29;-0.90;99.90
52016;DHT22;38032;53.326;6.472;2023-03-01T06:42:57;-0.70;99.90
52016;DHT22;38032;53.326;6.472;2023-03-01T06:45:23;-0.60;99.90
52016;DHT22;38032;53.326;6.472;2023-03-01T06:47:49;-0.50;99.90
52016;DHT22;38032;53.326;6.472;2023-03-01T06:50:17;-0.50;99.90
52016;DHT22;38032;53.326;6.472;2023-03-01T06:52:43;-0.50;99.90
52016;DHT22;38032;53.326;6.472;2023-03-01T06:55:11;-0.50;99.90
52016;DHT22;38032;53.326;6.472;2023-03-01T06:57:37;-0.50;99.90
52016;DHT22;38032;53.326;6.472;2023-03-01T07:00:04;-0.50;99.90
52016;DHT22;38032;53.326;6.472;2023-03-01T07:02:30;-0.50;99.90
52016;DHT22;38032;53.326;6.472;2023-03-01T07:04:56;-0.50;99.90
52016;DHT22;38032;53.326;6.472;2023-03-01T07:07:22;-0.50;99.90
52016;DHT22;38032;53.326;6.472;2023-03-01T07:09:49;-0.40;99.90
52016;DHT22;38032;53.326;6.472;2023-03-01T07:12:15;-0.30;99.90
52016;DHT22;38032;53.326;6.472;2023-03-01T07:14:41;-0.30;99.90
52016;DHT22;38032;53.326;6.472;2023-03-01T07:17:09;-0.30;99.90
52016;DHT22;38032;53.326;6.472;2023-03-01T07:19:34;-0.20;99.90
52016;DHT22;38032;53.326;6.472;2023-03-01T07:22:00;-0.20;99.90
52016;DHT22;38032;53.326;6.472;2023-03-01T07:24:26;-0.10;99.90
52016;DHT22;38032;53.326;6.472;2023-03-01T07:26:52;0.00;99.90
52016;DHT22;38032;53.326;6.472;2023-03-01T07:29:19;0.10;99.90
52016;DHT22;38032;53.326;6.472;2023-03-01T07:31:45;0.30;99.90
52016;DHT22;38032;53.326;6.472;2023-03-01T07:34:11;0.40;99.90
52016;DHT22;38032;53.326;6.472;2023-03-01T07:36:37;0.60;99.90
52016;DHT22;38032;53.326;6.472;2023-03-01T07:39:05;0.70;99.90
52016;DHT22;38032;53.326;6.472;2023-03-01T07:41:30;0.80;99.90
52016;DHT22;38032;53.326;6.472;2023-03-01T07:43:56;1.00;99.90
52016;DHT22;38032;53.326;6.472;2023-03-01T07:46:22;1.20;99.90
52016;DHT22;38032;53.326;6.472;2023-03-01T07:48:48;1.30;99.90
52016;DHT22;38032;53.326;6.472;2023-03-01T07:51:14;1.40;99.90
52016;DHT22;38032;53.326;6.472;2023-03-01T07:53:40;1.50;99.90
52016;DHT22;38032;53.326;6.472;2023-03-01T07:56:09;1.70;99.90
52016;DHT22;38032;53.326;6.472;2023-03-01T07:58:37;1.90;99.90
52016;DHT22;38032;53.326;6.472;2023-03-01T08:01:06;2.20;99.90
52016;DHT22;38032;53.326;6.472;2023-03-01T08:03:32;2.40;99.90
52016;DHT22;38032;53.326;6.472;2023-03-01T08:06:00;2.70;99.90
52016;DHT22;38032;53.326;6.472;2023-03-01T08:08:27;3.40;99.90
52016;DHT22;38032;53.326;6.472;2023-03-01T08:10:56;3.90;99.90
52016;DHT22;38032;53.326;6.472;2023-03-01T08:13:22;4.30;99.90
52016;DHT22;38032;53.326;6.472;2023-03-01T08:15:49;4.60;99.90
52016;DHT22;38032;53.326;6.472;2023-03-01T08:18:17;5.00;99.90
52016;DHT22;38032;53.326;6.472;2023-03-01T08:20:43;5.70;99.90
52016;DHT22;38032;53.326;6.472;2023-03-01T08:23:08;6.60;99.90
52016;DHT22;38032;53.326;6.472;2023-03-01T08:25:34;6.80;99.90
52016;DHT22;38032;53.326;6.472;2023-03-01T08:28:00;7.70;99.90
52016;DHT22;38032;53.326;6.472;2023-03-01T08:30:26;8.80;99.90
52016;DHT22;38032;53.326;6.472;2023-03-01T08:32:52;10.00;99.90
52016;DHT22;38032;53.326;6.472;2023-03-01T08:35:19;11.30;99.90
52016;DHT22;38032;53.326;6.472;2023-03-01T08:37:45;12.30;99.20
52016;DHT22;38032;53.326;6.472;2023-03-01T08:40:11;13.00;95.40
52016;DHT22;38032;53.326;6.472;2023-03-01T08:42:39;13.40;91.80
52016;DHT22;38032;53.326;6.472;2023-03-01T08:45:06;14.20;88.50
52016;DHT22;38032;53.326;6.472;2023-03-01T08:47:33;15.00;83.50
52016;DHT22;38032;53.326;6.472;2023-03-01T08:49:59;16.10;78.60
52016;DHT22;38032;53.326;6.472;2023-03-01T08:52:26;16.90;74.30
52016;DHT22;38032;53.326;6.472;2023-03-01T08:54:52;17.70;70.80
52016;DHT22;38032;53.326;6.472;2023-03-01T08:57:18;18.20;68.70
52016;DHT22;38032;53.326;6.472;2023-03-01T08:59:44;18.70;67.00
52016;DHT22;38032;53.326;6.472;2023-03-01T09:02:13;19.40;66.10
52016;DHT22;38032;53.326;6.472;2023-03-01T09:04:40;20.10;64.40
52016;DHT22;38032;53.326;6.472;2023-03-01T09:07:06;20.70;63.00
52016;DHT22;38032;53.326;6.472;2023-03-01T09:09:32;21.10;61.30
52016;DHT22;38032;53.326;6.472;2023-03-01T09:11:58;21.30;60.30
52016;DHT22;38032;53.326;6.472;2023-03-01T09:14:24;21.50;59.40
52016;DHT22;38032;53.326;6.472;2023-03-01T09:16:50;21.70;58.80
52016;DHT22;38032;53.326;6.472;2023-03-01T09:19:16;22.10;58.00
52016;DHT22;38032;53.326;6.472;2023-03-01T09:21:42;22.30;57.70
52016;DHT22;38032;53.326;6.472;2023-03-01T09:24:19;22.40;56.40
52016;DHT22;38032;53.326;6.472;2023-03-01T09:26:46;22.70;55.40
52016;DHT22;38032;53.326;6.472;2023-03-01T09:29:12;23.10;54.60
52016;DHT22;38032;53.326;6.472;2023-03-01T09:31:38;23.30;53.50
52016;DHT22;38032;53.326;6.472;2023-03-01T09:34:05;23.60;53.20
52016;DHT22;38032;53.326;6.472;2023-03-01T09:36:31;23.90;52.80
52016;DHT22;38032;53.326;6.472;2023-03-01T09:38:58;24.40;52.30
52016;DHT22;38032;53.326;6.472;2023-03-01T09:41:38;24.90;51.60
52016;DHT22;38032;53.326;6.472;2023-03-01T09:44:11;25.20;49.90
52016;DHT22;38032;53.326;6.472;2023-03-01T09:46:42;25.50;49.60
52016;DHT22;38032;53.326;6.472;2023-03-01T09:49:14;25.60;48.90
52016;DHT22;38032;53.326;6.472;2023-03-01T09:51:47;25.70;48.00
52016;DHT22;38032;53.326;6.472;2023-03-01T09:54:15;26.00;48.60
52016;DHT22;38032;53.326;6.472;2023-03-01T09:56:45;26.40;48.10
52016;DHT22;38032;53.326;6.472;2023-03-01T10:01:54;27.10;46.50
52016;DHT22;38032;53.326;6.472;2023-03-01T10:04:38;27.40;45.50
52016;DHT22;38032;53.326;6.472;2023-03-01T10:09:38;27.70;45.50
52016;DHT22;38032;53.326;6.472;2023-03-01T10:12:10;27.90;45.00
52016;DHT22;38032;53.326;6.472;2023-03-01T10:14:42;27.90;44.20
52016;DHT22;38032;53.326;6.472;2023-03-01T10:19:47;27.70;43.50
52016;DHT22;38032;53.326;6.472;2023-03-01T10:22:18;27.50;43.70
52016;DHT22;38032;53.326;6.472;2023-03-01T10:24:46;27.30;43.40
52016;DHT22;38032;53.326;6.472;2023-03-01T10:27:44;27.20;44.40
52016;DHT22;38032;53.326;6.472;2023-03-01T10:30:18;27.00;44.70
52016;DHT22;38032;53.326;6.472;2023-03-01T10:32:46;26.50;44.20
52016;DHT22;38032;53.326;6.472;2023-03-01T10:35:24;26.30;44.50
52016;DHT22;38032;53.326;6.472;2023-03-01T10:38:08;26.00;44.30
52016;DHT22;38032;53.326;6.472;2023-03-01T10:40:51;25.50;43.80
52016;DHT22;38032;53.326;6.472;2023-03-01T10:43:19;24.80;44.40
52016;DHT22;38032;53.326;6.472;2023-03-01T10:45:45;24.30;45.20
52016;DHT22;38032;53.326;6.472;2023-03-01T10:48:17;23.60;45.30
52016;DHT22;38032;53.326;6.472;2023-03-01T10:50:48;23.10;46.10
52016;DHT22;38032;53.326;6.472;2023-03-01T10:56:08;22.00;47.20
52016;DHT22;38032;53.326;6.472;2023-03-01T10:58:37;21.30;47.60
52016;DHT22;38032;53.326;6.472;2023-03-01T11:01:32;20.90;49.00
52016;DHT22;38032;53.326;6.472;2023-03-01T11:06:32;20.50;50.20
52016;DHT22;38032;53.326;6.472;2023-03-01T11:09:14;20.60;49.70
52016;DHT22;38032;53.326;6.472;2023-03-01T11:11:41;20.50;49.60
52016;DHT22;38032;53.326;6.472;2023-03-01T11:14:15;19.80;50.20
52016;DHT22;38032;53.326;6.472;2023-03-01T11:16:42;19.10;50.50
52016;DHT22;38032;53.326;6.472;2023-03-01T11:21:44;17.40;53.80
52016;DHT22;38032;53.326;6.472;2023-03-01T11:24:14;17.20;54.40
52016;DHT22;38032;53.326;6.472;2023-03-01T11:26:44;17.00;54.70
52016;DHT22;38032;53.326;6.472;2023-03-01T11:29:32;16.60;54.10
52016;DHT22;38032;53.326;6.472;2023-03-01T11:32:02;16.40;53.90
52016;DHT22;38032;53.326;6.472;2023-03-01T11:37:01;15.40;55.30
52016;DHT22;38032;53.326;6.472;2023-03-01T11:39:36;15.10;55.60
52016;DHT22;38032;53.326;6.472;2023-03-01T11:42:28;14.90;55.40
52016;DHT22;38032;53.326;6.472;2023-03-01T11:45:01;14.70;54.90
52016;DHT22;38032;53.326;6.472;2023-03-01T11:50:15;14.70;56.20
52016;DHT22;38032;53.326;6.472;2023-03-01T12:00:59;13.80;56.50
52016;DHT22;38032;53.326;6.472;2023-03-01T12:09:24;13.80;56.40
52016;DHT22;38032;53.326;6.472;2023-03-01T12:17:20;14.10;58.40
52016;DHT22;38032;53.326;6.472;2023-03-01T12:20:11;13.90;56.80
52016;DHT22;38032;53.326;6.472;2023-03-01T12:22:55;13.70;58.60
52016;DHT22;38032;53.326;6.472;2023-03-01T12:25:29;13.50;57.60
52016;DHT22;38032;53.326;6.472;2023-03-01T12:28:16;13.20;57.60
52016;DHT22;38032;53.326;6.472;2023-03-01T12:36:20;12.50;58.20
52016;DHT22;38032;53.326;6.472;2023-03-01T12:39:12;12.30;58.10
52016;DHT22;38032;53.326;6.472;2023-03-01T12:47:24;12.20;57.90
52016;DHT22;38032;53.326;6.472;2023-03-01T12:49:55;12.10;57.90
52016;DHT22;38032;53.326;6.472;2023-03-01T12:52:35;11.80;58.80
52016;DHT22;38032;53.326;6.472;2023-03-01T12:55:08;11.80;65.00
52016;DHT22;38032;53.326;6.472;2023-03-01T12:57:51;11.70;58.90
52016;DHT22;38032;53.326;6.472;2023-03-01T13:00:40;11.70;59.20
52016;DHT22;38032;53.326;6.472;2023-03-01T13:03:24;11.60;59.30
52016;DHT22;38032;53.326;6.472;2023-03-01T13:11:05;11.40;59.50
52016;DHT22;38032;53.326;6.472;2023-03-01T13:13:32;11.20;60.20
52016;DHT22;38032;53.326;6.472;2023-03-01T13:16:27;11.20;59.80
52016;DHT22;38032;53.326;6.472;2023-03-01T13:19:13;11.10;60.40
52016;DHT22;38032;53.326;6.472;2023-03-01T13:21:40;11.20;59.90
52016;DHT22;38032;53.326;6.472;2023-03-01T13:24:24;11.10;59.70
52016;DHT22;38032;53.326;6.472;2023-03-01T13:27:09;11.00;60.30
52016;DHT22;38032;53.326;6.472;2023-03-01T13:29:48;10.70;61.70
52016;DHT22;38032;53.326;6.472;2023-03-01T13:32:26;10.70;61.80
52016;DHT22;38032;53.326;6.472;2023-03-01T13:34:55;10.60;75.90
52016;DHT22;38032;53.326;6.472;2023-03-01T13:37:26;10.50;61.70
52016;DHT22;38032;53.326;6.472;2023-03-01T13:39:56;10.40;62.60
52016;DHT22;38032;53.326;6.472;2023-03-01T13:42:31;10.40;63.30
52016;DHT22;38032;53.326;6.472;2023-03-01T13:44:57;10.40;63.80
52016;DHT22;38032;53.326;6.472;2023-03-01T13:47:23;10.50;64.80
52016;DHT22;38032;53.326;6.472;2023-03-01T13:49:56;10.60;63.80
52016;DHT22;38032;53.326;6.472;2023-03-01T13:52:57;10.70;64.30
52016;DHT22;38032;53.326;6.472;2023-03-01T13:55:35;10.70;64.40
52016;DHT22;38032;53.326;6.472;2023-03-01T13:58:12;10.70;64.40
52016;DHT22;38032;53.326;6.472;2023-03-01T14:00:40;10.80;64.40
52016;DHT22;38032;53.326;6.472;2023-03-01T14:03:10;10.70;64.90
52016;DHT22;38032;53.326;6.472;2023-03-01T14:05:37;10.70;65.30
52016;DHT22;38032;53.326;6.472;2023-03-01T14:08:04;10.60;65.50
52016;DHT22;38032;53.326;6.472;2023-03-01T14:10:39;10.60;65.50
52016;DHT22;38032;53.326;6.472;2023-03-01T14:13:24;10.60;66.40
52016;DHT22;38032;53.326;6.472;2023-03-01T14:16:06;10.50;66.90
52016;DHT22;38032;53.326;6.472;2023-03-01T14:18:50;10.50;67.00
52016;DHT22;38032;53.326;6.472;2023-03-01T14:21:21;10.50;67.40
52016;DHT22;38032;53.326;6.472;2023-03-01T14:23:48;10.50;67.60
52016;DHT22;38032;53.326;6.472;2023-03-01T14:26:21;10.40;67.60
52016;DHT22;38032;53.326;6.472;2023-03-01T14:28:48;10.30;68.20
52016;DHT22;38032;53.326;6.472;2023-03-01T14:31:36;10.30;68.00
52016;DHT22;38032;53.326;6.472;2023-03-01T14:34:03;10.20;69.20
52016;DHT22;38032;53.326;6.472;2023-03-01T14:36:31;10.20;68.60
52016;DHT22;38032;53.326;6.472;2023-03-01T14:38:58;10.10;69.00
52016;DHT22;38032;53.326;6.472;2023-03-01T14:41:33;10.10;69.20
52016;DHT22;38032;53.326;6.472;2023-03-01T14:44:11;10.00;69.50
52016;DHT22;38032;53.326;6.472;2023-03-01T14:46:40;10.00;70.80
52016;DHT22;38032;53.326;6.472;2023-03-01T14:49:11;9.90;70.80
52016;DHT22;38032;53.326;6.472;2023-03-01T14:51:40;9.90;71.40
52016;DHT22;38032;53.326;6.472;2023-03-01T14:56:47;9.90;74.10
52016;DHT22;38032;53.326;6.472;2023-03-01T14:59:13;9.80;73.80
52016;DHT22;38032;53.326;6.472;2023-03-01T15:01:41;9.90;74.70
52016;DHT22;38032;53.326;6.472;2023-03-01T15:04:11;9.80;75.40
52016;DHT22;38032;53.326;6.472;2023-03-01T15:06:38;9.70;76.50
52016;DHT22;38032;53.326;6.472;2023-03-01T15:09:05;9.70;77.10
52016;DHT22;38032;53.326;6.472;2023-03-01T15:11:33;9.70;79.80
52016;DHT22;38032;53.326;6.472;2023-03-01T15:13:59;9.70;83.10
52016;DHT22;38032;53.326;6.472;2023-03-01T15:16:30;9.50;86.00
52016;DHT22;38032;53.326;6.472;2023-03-01T15:18:59;9.30;89.00
52016;DHT22;38032;53.326;6.472;2023-03-01T15:21:33;9.10;90.10
52016;DHT22;38032;53.326;6.472;2023-03-01T15:26:35;8.80;93.40
52016;DHT22;38032;53.326;6.472;2023-03-01T15:29:03;8.70;95.10
52016;DHT22;38032;53.326;6.472;2023-03-01T15:31:33;8.60;96.60
52016;DHT22;38032;53.326;6.472;2023-03-01T15:36:43;8.30;99.90
52016;DHT22;38032;53.326;6.472;2023-03-01T15:41:54;7.90;99.90
52016;DHT22;38032;53.326;6.472;2023-03-01T15:44:27;7.80;99.90
52016;DHT22;38032;53.326;6.472;2023-03-01T15:46:53;7.80;99.90
52016;DHT22;38032;53.326;6.472;2023-03-01T15:49:27;7.70;99.90
52016;DHT22;38032;53.326;6.472;2023-03-01T15:51:56;7.60;99.90
52016;DHT22;38032;53.326;6.472;2023-03-01T15:54:24;7.50;99.90
52016;DHT22;38032;53.326;6.472;2023-03-01T15:56:50;7.40;99.90
52016;DHT22;38032;53.326;6.472;2023-03-01T15:59:17;7.40;99.90
52016;DHT22;38032;53.326;6.472;2023-03-01T16:01:44;7.30;99.90
52016;DHT22;38032;53.326;6.472;2023-03-01T16:04:11;7.30;99.90
52016;DHT22;38032;53.326;6.472;2023-03-01T16:06:42;7.20;99.90
52016;DHT22;38032;53.326;6.472;2023-03-01T16:09:08;7.10;99.90
52016;DHT22;38032;53.326;6.472;2023-03-01T16:11:35;7.10;99.90
52016;DHT22;38032;53.326;6.472;2023-03-01T16:14:02;7.00;99.90
52016;DHT22;38032;53.326;6.472;2023-03-01T16:16:28;6.90;99.90
52016;DHT22;38032;53.326;6.472;2023-03-01T16:18:55;6.90;99.90
52016;DHT22;38032;53.326;6.472;2023-03-01T16:21:23;6.80;99.90
52016;DHT22;38032;53.326;6.472;2023-03-01T16:23:50;6.70;99.90
52016;DHT22;38032;53.326;6.472;2023-03-01T16:26:17;6.70;99.90
52016;DHT22;38032;53.326;6.472;2023-03-01T16:28:45;6.60;99.90
52016;DHT22;38032;53.326;6.472;2023-03-01T16:31:12;6.60;99.90
52016;DHT22;38032;53.326;6.472;2023-03-01T16:33:40;6.50;99.90
52016;DHT22;38032;53.326;6.472;2023-03-01T16:36:08;6.40;99.90
52016;DHT22;38032;53.326;6.472;2023-03-01T16:38:34;6.40;99.90
52016;DHT22;38032;53.326;6.472;2023-03-01T16:41:00;6.30;99.90
52016;DHT22;38032;53.326;6.472;2023-03-01T16:43:27;6.30;99.90
52016;DHT22;38032;53.326;6.472;2023-03-01T16:45:53;6.20;99.90
52016;DHT22;38032;53.326;6.472;2023-03-01T16:48:18;6.10;99.90
52016;DHT22;38032;53.326;6.472;2023-03-01T16:50:44;6.10;99.90
52016;DHT22;38032;53.326;6.472;2023-03-01T16:53:10;6.00;99.90
52016;DHT22;38032;53.326;6.472;2023-03-01T16:55:36;6.00;99.90
52016;DHT22;38032;53.326;6.472;2023-03-01T16:58:03;5.90;99.90
52016;DHT22;38032;53.326;6.472;2023-03-01T17:00:29;5.90;99.90
52016;DHT22;38032;53.326;6.472;2023-03-01T17:02:55;5.80;99.90
52016;DHT22;38032;53.326;6.472;2023-03-01T17:05:22;5.70;99.90
52016;DHT22;38032;53.326;6.472;2023-03-01T17:07:49;5.70;99.90
52016;DHT22;38032;53.326;6.472;2023-03-01T17:10:15;5.60;99.90
52016;DHT22;38032;53.326;6.472;2023-03-01T17:12:41;5.50;99.90
52016;DHT22;38032;53.326;6.472;2023-03-01T17:15:07;5.50;99.90
52016;DHT22;38032;53.326;6.472;2023-03-01T17:17:33;5.40;99.90
52016;DHT22;38032;53.326;6.472;2023-03-01T17:20:00;5.30;99.90
52016;DHT22;38032;53.326;6.472;2023-03-01T17:22:26;5.20;99.90
52016;DHT22;38032;53.326;6.472;2023-03-01T17:24:52;5.10;99.90
52016;DHT22;38032;53.326;6.472;2023-03-01T17:27:18;5.00;99.90
52016;DHT22;38032;53.326;6.472;2023-03-01T17:29:44;5.00;99.90